sensor_id;sensor_type;location;lat;lon;timestamp;P1;durP1;ratioP1;P2;durP2;ratioP2
74941;SDS011;63506;49.346;8.798;2022-12-10T00:01:10;15.10;;;13.38;;
74941;SDS011;63506;49.346;8.798;2022-12-10T00:03:38;14.73;;;10.63;;
74941;SDS011;63506;49.346;8.798;2022-12-10T00:06:16;16.13;;;11.45;;
74941;SDS011;63506;49.346;8.798;2022-12-10T00:08:45;14.98;;;12.07;;
74941;SDS011;63506;49.346;8.798;2022-12-10T00:11:12;15.88;;;12.20;;
74941;SDS011;63506;49.346;8.798;2022-12-10T00:13:40;14.80;;;12.43;;
74941;SDS011;63506;49.346;8.798;2022-12-10T00:16:10;18.02;;;12.07;;
74941;SDS011;63506;49.346;8.798;2022-12-10T00:18:39;17.80;;;12.82;;
74941;SDS011;63506;49.346;8.798;2022-12-10T00:21:10;15.02;;;10.75;;
74941;SDS011;63506;49.346;8.798;2022-12-10T00:23:36;20.45;;;12.52;;
74941;SDS011;63506;49.346;8.798;2022-12-10T00:28:30;18.70;;;11.38;;
74941;SDS011;63506;49.346;8.798;2022-12-10T00:31:07;13.52;;;10.90;;
74941;SDS011;63506;49.346;8.798;2022-12-10T00:33:36;12.60;;;11.20;;
74941;SDS011;63506;49.346;8.798;2022-12-10T00:36:10;18.10;;;13.07;;
74941;SDS011;63506;49.346;8.798;2022-12-10T00:38:39;16.25;;;13.90;;
74941;SDS011;63506;49.346;8.798;2022-12-10T00:41:08;12.98;;;10.70;;
74941;SDS011;63506;49.346;8.798;2022-12-10T00:43:34;14.80;;;12.40;;
74941;SDS011;63506;49.346;8.798;2022-12-10T00:46:02;19.73;;;12.60;;
74941;SDS011;63506;49.346;8.798;2022-12-10T00:48:36;18.23;;;13.05;;
74941;SDS011;63506;49.346;8.798;2022-12-10T00:51:10;17.90;;;13.88;;
74941;SDS011;63506;49.346;8.798;2022-12-10T00:53:40;13.75;;;10.90;;
74941;SDS011;63506;49.346;8.798;2022-12-10T00:56:13;17.63;;;14.38;;
74941;SDS011;63506;49.346;8.798;2022-12-10T00:58:40;19.80;;;13.35;;
74941;SDS011;63506;49.346;8.798;2022-12-10T01:01:13;14.32;;;11.13;;
74941;SDS011;63506;49.346;8.798;2022-12-10T01:03:40;15.05;;;11.90;;
74941;SDS011;63506;49.346;8.798;2022-12-10T01:06:20;16.10;;;13.00;;
74941;SDS011;63506;49.346;8.798;2022-12-10T01:08:47;15.15;;;11.30;;
74941;SDS011;63506;49.346;8.798;2022-12-10T01:11:14;16.27;;;13.15;;
74941;SDS011;63506;49.346;8.798;2022-12-10T01:13:43;16.38;;;12.95;;
74941;SDS011;63506;49.346;8.798;2022-12-10T01:16:10;16.83;;;13.30;;
74941;SDS011;63506;49.346;8.798;2022-12-10T01:18:39;15.00;;;13.45;;
74941;SDS011;63506;49.346;8.798;2022-12-10T01:21:07;16.65;;;12.73;;
74941;SDS011;63506;49.346;8.798;2022-12-10T01:23:37;17.02;;;12.18;;
74941;SDS011;63506;49.346;8.798;2022-12-10T01:26:06;14.88;;;12.32;;
74941;SDS011;63506;49.346;8.798;2022-12-10T01:28:37;17.52;;;12.80;;
74941;SDS011;63506;49.346;8.798;2022-12-10T01:31:04;18.35;;;11.82;;
74941;SDS011;63506;49.346;8.798;2022-12-10T01:33:31;13.05;;;10.90;;
74941;SDS011;63506;49.346;8.798;2022-12-10T01:36:09;19.35;;;13.95;;
74941;SDS011;63506;49.346;8.798;2022-12-10T01:38:35;20.33;;;12.23;;
74941;SDS011;63506;49.346;8.798;2022-12-10T01:41:04;15.93;;;13.85;;
74941;SDS011;63506;49.346;8.798;2022-12-10T01:43:50;14.23;;;11.93;;
74941;SDS011;63506;49.346;8.798;2022-12-10T01:46:16;16.50;;;12.57;;
74941;SDS011;63506;49.346;8.798;2022-12-10T01:48:42;17.55;;;11.93;;
74941;SDS011;63506;49.346;8.798;2022-12-10T01:51:10;19.45;;;12.65;;
74941;SDS011;63506;49.346;8.798;2022-12-10T01:53:42;16.35;;;13.30;;
74941;SDS011;63506;49.346;8.798;2022-12-10T01:56:11;14.70;;;13.00;;
74941;SDS011;63506;49.346;8.798;2022-12-10T01:58:37;16.08;;;11.75;;
74941;SDS011;63506;49.346;8.798;2022-12-10T02:01:06;13.90;;;10.98;;
74941;SDS011;63506;49.346;8.798;2022-12-10T02:03:38;19.73;;;12.55;;
74941;SDS011;63506;49.346;8.798;2022-12-10T02:08:51;15.55;;;11.13;;
74941;SDS011;63506;49.346;8.798;2022-12-10T02:11:28;12.88;;;9.95;;
74941;SDS011;63506;49.346;8.798;2022-12-10T02:14:02;18.08;;;12.45;;
74941;SDS011;63506;49.346;8.798;2022-12-10T02:16:36;16.80;;;12.02;;
74941;SDS011;63506;49.346;8.798;2022-12-10T02:21:41;12.73;;;11.18;;
74941;SDS011;63506;49.346;8.798;2022-12-10T02:24:10;12.65;;;9.23;;
74941;SDS011;63506;49.346;8.798;2022-12-10T02:29:46;15.85;;;11.68;;
74941;SDS011;63506;49.346;8.798;2022-12-10T02:32:14;14.52;;;11.55;;
74941;SDS011;63506;49.346;8.798;2022-12-10T02:34:45;17.23;;;14.10;;
74941;SDS011;63506;49.346;8.798;2022-12-10T02:37:20;14.55;;;11.23;;
74941;SDS011;63506;49.346;8.798;2022-12-10T02:39:56;15.55;;;12.02;;
74941;SDS011;63506;49.346;8.798;2022-12-10T02:42:34;18.48;;;13.45;;
74941;SDS011;63506;49.346;8.798;2022-12-10T02:45:04;16.38;;;11.18;;
74941;SDS011;63506;49.346;8.798;2022-12-10T02:47:30;13.02;;;10.88;;
74941;SDS011;63506;49.346;8.798;2022-12-10T02:49:57;16.65;;;12.18;;
74941;SDS011;63506;49.346;8.798;2022-12-10T02:52:28;15.18;;;12.85;;
74941;SDS011;63506;49.346;8.798;2022-12-10T02:54:55;17.60;;;11.85;;
74941;SDS011;63506;49.346;8.798;2022-12-10T03:05:16;16.13;;;11.77;;
74941;SDS011;63506;49.346;8.798;2022-12-10T03:08:00;15.73;;;10.95;;
74941;SDS011;63506;49.346;8.798;2022-12-10T03:12:58;15.60;;;11.38;;
74941;SDS011;63506;49.346;8.798;2022-12-10T03:15:28;14.82;;;13.00;;
74941;SDS011;63506;49.346;8.798;2022-12-10T03:18:00;14.43;;;11.90;;
74941;SDS011;63506;49.346;8.798;2022-12-10T03:20:33;13.65;;;10.40;;
74941;SDS011;63506;49.346;8.798;2022-12-10T03:23:02;13.57;;;11.93;;
74941;SDS011;63506;49.346;8.798;2022-12-10T03:25:33;18.40;;;11.25;;
74941;SDS011;63506;49.346;8.798;2022-12-10T03:28:00;13.68;;;11.18;;
74941;SDS011;63506;49.346;8.798;2022-12-10T03:30:26;18.20;;;13.63;;
74941;SDS011;63506;49.346;8.798;2022-12-10T03:32:53;19.70;;;13.27;;
74941;SDS011;63506;49.346;8.798;2022-12-10T03:35:19;17.00;;;12.07;;
74941;SDS011;63506;49.346;8.798;2022-12-10T03:37:46;21.52;;;13.32;;
74941;SDS011;63506;49.346;8.798;2022-12-10T03:40:15;18.35;;;13.77;;
74941;SDS011;63506;49.346;8.798;2022-12-10T03:42:47;18.85;;;12.25;;
74941;SDS011;63506;49.346;8.798;2022-12-10T03:45:16;13.98;;;11.57;;
74941;SDS011;63506;49.346;8.798;2022-12-10T03:47:44;19.15;;;13.82;;
74941;SDS011;63506;49.346;8.798;2022-12-10T03:50:10;13.45;;;10.35;;
74941;SDS011;63506;49.346;8.798;2022-12-10T03:52:39;18.42;;;11.93;;
74941;SDS011;63506;49.346;8.798;2022-12-10T03:55:10;16.35;;;14.27;;
74941;SDS011;63506;49.346;8.798;2022-12-10T03:57:36;17.15;;;12.23;;
74941;SDS011;63506;49.346;8.798;2022-12-10T04:00:03;17.50;;;13.10;;
74941;SDS011;63506;49.346;8.798;2022-12-10T04:02:40;16.85;;;12.57;;
74941;SDS011;63506;49.346;8.798;2022-12-10T04:05:11;14.73;;;12.13;;
74941;SDS011;63506;49.346;8.798;2022-12-10T04:07:37;16.10;;;12.27;;
74941;SDS011;63506;49.346;8.798;2022-12-10T04:10:03;13.25;;;11.38;;
74941;SDS011;63506;49.346;8.798;2022-12-10T04:12:29;16.95;;;11.55;;
74941;SDS011;63506;49.346;8.798;2022-12-10T04:14:55;16.92;;;11.77;;
74941;SDS011;63506;49.346;8.798;2022-12-10T04:17:42;20.60;;;13.98;;
74941;SDS011;63506;49.346;8.798;2022-12-10T04:20:10;16.23;;;11.10;;
74941;SDS011;63506;49.346;8.798;2022-12-10T04:22:56;18.80;;;13.93;;
74941;SDS011;63506;49.346;8.798;2022-12-10T04:25:40;15.32;;;13.15;;
74941;SDS011;63506;49.346;8.798;2022-12-10T04:28:25;19.60;;;13.00;;
74941;SDS011;63506;49.346;8.798;2022-12-10T04:30:53;17.73;;;13.20;;
74941;SDS011;63506;49.346;8.798;2022-12-10T04:33:19;19.05;;;12.35;;
74941;SDS011;63506;49.346;8.798;2022-12-10T04:35:45;14.75;;;13.18;;
74941;SDS011;63506;49.346;8.798;2022-12-10T04:38:12;18.60;;;13.77;;
74941;SDS011;63506;49.346;8.798;2022-12-10T04:40:40;15.85;;;12.90;;
74941;SDS011;63506;49.346;8.798;2022-12-10T04:43:07;15.00;;;12.07;;
74941;SDS011;63506;49.346;8.798;2022-12-10T04:45:35;15.18;;;11.68;;
74941;SDS011;63506;49.346;8.798;2022-12-10T04:48:03;15.35;;;12.15;;
74941;SDS011;63506;49.346;8.798;2022-12-10T04:50:32;19.33;;;13.68;;
74941;SDS011;63506;49.346;8.798;2022-12-10T04:52:58;20.20;;;13.90;;
74941;SDS011;63506;49.346;8.798;2022-12-10T04:55:24;14.77;;;11.85;;
74941;SDS011;63506;49.346;8.798;2022-12-10T04:57:55;15.02;;;11.40;;
74941;SDS011;63506;49.346;8.798;2022-12-10T05:00:28;15.35;;;13.20;;
74941;SDS011;63506;49.346;8.798;2022-12-10T05:02:54;16.67;;;12.57;;
74941;SDS011;63506;49.346;8.798;2022-12-10T05:05:22;20.42;;;15.13;;
74941;SDS011;63506;49.346;8.798;2022-12-10T05:07:48;17.38;;;13.55;;
74941;SDS011;63506;49.346;8.798;2022-12-10T05:10:13;18.95;;;14.18;;
74941;SDS011;63506;49.346;8.798;2022-12-10T05:12:42;13.95;;;11.93;;
74941;SDS011;63506;49.346;8.798;2022-12-10T05:15:08;15.18;;;13.70;;
74941;SDS011;63506;49.346;8.798;2022-12-10T05:17:34;18.02;;;13.27;;
74941;SDS011;63506;49.346;8.798;2022-12-10T05:20:04;16.25;;;12.32;;
74941;SDS011;63506;49.346;8.798;2022-12-10T05:22:32;17.00;;;12.05;;
74941;SDS011;63506;49.346;8.798;2022-12-10T05:25:21;17.27;;;13.10;;
74941;SDS011;63506;49.346;8.798;2022-12-10T05:27:50;15.27;;;11.65;;
74941;SDS011;63506;49.346;8.798;2022-12-10T05:30:15;15.77;;;12.55;;
74941;SDS011;63506;49.346;8.798;2022-12-10T05:32:41;17.80;;;13.27;;
74941;SDS011;63506;49.346;8.798;2022-12-10T05:35:07;17.55;;;13.77;;
74941;SDS011;63506;49.346;8.798;2022-12-10T05:37:33;15.68;;;11.65;;
74941;SDS011;63506;49.346;8.798;2022-12-10T05:39:59;18.70;;;12.15;;
74941;SDS011;63506;49.346;8.798;2022-12-10T05:42:25;22.15;;;12.88;;
74941;SDS011;63506;49.346;8.798;2022-12-10T05:44:51;13.30;;;10.38;;
74941;SDS011;63506;49.346;8.798;2022-12-10T05:47:19;15.18;;;11.40;;
74941;SDS011;63506;49.346;8.798;2022-12-10T05:49:47;14.63;;;11.70;;
74941;SDS011;63506;49.346;8.798;2022-12-10T05:52:18;12.75;;;11.45;;
74941;SDS011;63506;49.346;8.798;2022-12-10T05:54:43;18.42;;;13.15;;
74941;SDS011;63506;49.346;8.798;2022-12-10T05:57:09;16.70;;;14.50;;
74941;SDS011;63506;49.346;8.798;2022-12-10T05:59:35;16.00;;;12.45;;
74941;SDS011;63506;49.346;8.798;2022-12-10T06:02:01;23.30;;;14.75;;
74941;SDS011;63506;49.346;8.798;2022-12-10T06:04:27;14.57;;;12.45;;
74941;SDS011;63506;49.346;8.798;2022-12-10T06:06:55;16.73;;;12.05;;
74941;SDS011;63506;49.346;8.798;2022-12-10T06:09:24;17.40;;;12.20;;
74941;SDS011;63506;49.346;8.798;2022-12-10T06:11:50;17.95;;;13.00;;
74941;SDS011;63506;49.346;8.798;2022-12-10T06:14:16;15.48;;;13.15;;
74941;SDS011;63506;49.346;8.798;2022-12-10T06:16:42;14.38;;;12.13;;
74941;SDS011;63506;49.346;8.798;2022-12-10T06:19:08;18.73;;;12.30;;
74941;SDS011;63506;49.346;8.798;2022-12-10T06:21:34;13.55;;;10.75;;
74941;SDS011;63506;49.346;8.798;2022-12-10T06:24:04;23.15;;;11.70;;
74941;SDS011;63506;49.346;8.798;2022-12-10T06:26:30;16.20;;;12.88;;
74941;SDS011;63506;49.346;8.798;2022-12-10T06:28:56;13.77;;;10.50;;
74941;SDS011;63506;49.346;8.798;2022-12-10T06:31:22;15.75;;;12.25;;
74941;SDS011;63506;49.346;8.798;2022-12-10T06:33:49;15.80;;;12.32;;
74941;SDS011;63506;49.346;8.798;2022-12-10T06:36:18;14.02;;;11.05;;
74941;SDS011;63506;49.346;8.798;2022-12-10T06:38:46;14.63;;;10.95;;
74941;SDS011;63506;49.346;8.798;2022-12-10T06:41:15;16.13;;;12.32;;
74941;SDS011;63506;49.346;8.798;2022-12-10T06:43:41;15.43;;;11.48;;
74941;SDS011;63506;49.346;8.798;2022-12-10T06:46:14;13.88;;;12.13;;
74941;SDS011;63506;49.346;8.798;2022-12-10T06:48:42;14.70;;;11.90;;
74941;SDS011;63506;49.346;8.798;2022-12-10T06:51:09;16.38;;;11.02;;
74941;SDS011;63506;49.346;8.798;2022-12-10T06:53:37;15.98;;;12.00;;
74941;SDS011;63506;49.346;8.798;2022-12-10T06:56:06;18.52;;;13.77;;
74941;SDS011;63506;49.346;8.798;2022-12-10T06:58:35;18.38;;;14.20;;
74941;SDS011;63506;49.346;8.798;2022-12-10T07:01:02;16.48;;;13.73;;
74941;SDS011;63506;49.346;8.798;2022-12-10T07:03:32;15.40;;;12.60;;
74941;SDS011;63506;49.346;8.798;2022-12-10T07:06:01;16.70;;;14.30;;
74941;SDS011;63506;49.346;8.798;2022-12-10T07:08:29;15.63;;;10.52;;
74941;SDS011;63506;49.346;8.798;2022-12-10T07:10:58;13.50;;;11.02;;
74941;SDS011;63506;49.346;8.798;2022-12-10T07:13:28;15.70;;;14.05;;
74941;SDS011;63506;49.346;8.798;2022-12-10T07:15:54;18.02;;;13.50;;
74941;SDS011;63506;49.346;8.798;2022-12-10T07:18:25;17.70;;;11.75;;
74941;SDS011;63506;49.346;8.798;2022-12-10T07:20:51;14.68;;;11.98;;
74941;SDS011;63506;49.346;8.798;2022-12-10T07:23:19;17.77;;;11.93;;
74941;SDS011;63506;49.346;8.798;2022-12-10T07:25:47;16.95;;;12.43;;
74941;SDS011;63506;49.346;8.798;2022-12-10T07:28:13;16.52;;;12.85;;
74941;SDS011;63506;49.346;8.798;2022-12-10T07:30:39;14.73;;;12.30;;
74941;SDS011;63506;49.346;8.798;2022-12-10T07:33:05;19.38;;;13.35;;
74941;SDS011;63506;49.346;8.798;2022-12-10T07:35:31;18.73;;;13.32;;
74941;SDS011;63506;49.346;8.798;2022-12-10T07:37:59;19.25;;;14.55;;
74941;SDS011;63506;49.346;8.798;2022-12-10T07:40:25;20.00;;;14.15;;
74941;SDS011;63506;49.346;8.798;2022-12-10T07:42:53;18.38;;;12.88;;
74941;SDS011;63506;49.346;8.798;2022-12-10T07:45:19;16.45;;;11.93;;
74941;SDS011;63506;49.346;8.798;2022-12-10T07:47:45;18.08;;;14.35;;
74941;SDS011;63506;49.346;8.798;2022-12-10T07:50:13;16.90;;;12.93;;
74941;SDS011;63506;49.346;8.798;2022-12-10T07:52:39;17.20;;;14.15;;
74941;SDS011;63506;49.346;8.798;2022-12-10T07:55:07;16.48;;;12.65;;
74941;SDS011;63506;49.346;8.798;2022-12-10T07:57:35;18.00;;;13.40;;
74941;SDS011;63506;49.346;8.798;2022-12-10T08:00:01;18.67;;;14.32;;
74941;SDS011;63506;49.346;8.798;2022-12-10T08:02:37;18.60;;;14.60;;
74941;SDS011;63506;49.346;8.798;2022-12-10T08:05:03;18.05;;;13.98;;
74941;SDS011;63506;49.346;8.798;2022-12-10T08:07:29;19.83;;;13.75;;
74941;SDS011;63506;49.346;8.798;2022-12-10T08:09:55;18.95;;;14.10;;
74941;SDS011;63506;49.346;8.798;2022-12-10T08:12:25;19.55;;;13.55;;
74941;SDS011;63506;49.346;8.798;2022-12-10T08:14:51;15.48;;;12.40;;
74941;SDS011;63506;49.346;8.798;2022-12-10T08:17:22;16.00;;;12.63;;
74941;SDS011;63506;49.346;8.798;2022-12-10T08:19:48;19.08;;;13.95;;
74941;SDS011;63506;49.346;8.798;2022-12-10T08:22:16;28.85;;;15.75;;
74941;SDS011;63506;49.346;8.798;2022-12-10T08:24:42;22.30;;;14.68;;
74941;SDS011;63506;49.346;8.798;2022-12-10T08:27:10;19.08;;;14.75;;
74941;SDS011;63506;49.346;8.798;2022-12-10T08:29:38;16.27;;;13.30;;
74941;SDS011;63506;49.346;8.798;2022-12-10T08:32:07;17.00;;;13.27;;
74941;SDS011;63506;49.346;8.798;2022-12-10T08:34:32;17.00;;;13.52;;
74941;SDS011;63506;49.346;8.798;2022-12-10T08:37:01;20.33;;;14.57;;
74941;SDS011;63506;49.346;8.798;2022-12-10T08:39:27;18.30;;;13.43;;
74941;SDS011;63506;49.346;8.798;2022-12-10T08:41:55;20.38;;;15.80;;
74941;SDS011;63506;49.346;8.798;2022-12-10T08:44:23;16.88;;;13.35;;
74941;SDS011;63506;49.346;8.798;2022-12-10T08:46:51;18.52;;;14.70;;
74941;SDS011;63506;49.346;8.798;2022-12-10T08:49:17;21.15;;;16.08;;
74941;SDS011;63506;49.346;8.798;2022-12-10T08:51:48;20.10;;;13.93;;
74941;SDS011;63506;49.346;8.798;2022-12-10T08:54:18;15.93;;;12.73;;
74941;SDS011;63506;49.346;8.798;2022-12-10T08:56:46;18.60;;;15.10;;
74941;SDS011;63506;49.346;8.798;2022-12-10T08:59:12;18.15;;;14.77;;
74941;SDS011;63506;49.346;8.798;2022-12-10T09:01:40;23.65;;;18.23;;
74941;SDS011;63506;49.346;8.798;2022-12-10T09:04:06;16.98;;;13.07;;
74941;SDS011;63506;49.346;8.798;2022-12-10T09:06:35;17.27;;;13.20;;
74941;SDS011;63506;49.346;8.798;2022-12-10T09:09:01;20.13;;;14.63;;
74941;SDS011;63506;49.346;8.798;2022-12-10T09:11:31;20.42;;;14.45;;
74941;SDS011;63506;49.346;8.798;2022-12-10T09:13:57;19.50;;;14.70;;
74941;SDS011;63506;49.346;8.798;2022-12-10T09:16:32;20.67;;;14.65;;
74941;SDS011;63506;49.346;8.798;2022-12-10T09:18:59;18.95;;;12.98;;
74941;SDS011;63506;49.346;8.798;2022-12-10T09:21:27;17.58;;;12.52;;
74941;SDS011;63506;49.346;8.798;2022-12-10T09:23:58;16.23;;;12.90;;
74941;SDS011;63506;49.346;8.798;2022-12-10T09:26:26;18.88;;;14.35;;
74941;SDS011;63506;49.346;8.798;2022-12-10T09:28:52;17.92;;;13.15;;
74941;SDS011;63506;49.346;8.798;2022-12-10T09:31:23;18.17;;;14.38;;
74941;SDS011;63506;49.346;8.798;2022-12-10T09:33:49;14.68;;;13.13;;
74941;SDS011;63506;49.346;8.798;2022-12-10T09:36:18;17.45;;;14.63;;
74941;SDS011;63506;49.346;8.798;2022-12-10T09:38:47;25.15;;;14.40;;
74941;SDS011;63506;49.346;8.798;2022-12-10T09:41:40;16.02;;;12.75;;
74941;SDS011;63506;49.346;8.798;2022-12-10T09:44:29;16.42;;;12.23;;
74941;SDS011;63506;49.346;8.798;2022-12-10T09:47:00;16.30;;;11.80;;
74941;SDS011;63506;49.346;8.798;2022-12-10T09:52:18;17.08;;;12.68;;
74941;SDS011;63506;49.346;8.798;2022-12-10T09:57:23;17.98;;;11.15;;
74941;SDS011;63506;49.346;8.798;2022-12-10T09:59:52;14.15;;;11.40;;
74941;SDS011;63506;49.346;8.798;2022-12-10T10:02:22;14.68;;;10.88;;
74941;SDS011;63506;49.346;8.798;2022-12-10T10:05:05;19.80;;;13.52;;
74941;SDS011;63506;49.346;8.798;2022-12-10T10:07:44;23.88;;;16.52;;
74941;SDS011;63506;49.346;8.798;2022-12-10T10:10:23;23.10;;;16.02;;
74941;SDS011;63506;49.346;8.798;2022-12-10T10:15:44;21.63;;;17.48;;
74941;SDS011;63506;49.346;8.798;2022-12-10T10:18:18;24.45;;;17.67;;
74941;SDS011;63506;49.346;8.798;2022-12-10T10:20:51;26.52;;;20.02;;
74941;SDS011;63506;49.346;8.798;2022-12-10T10:23:16;32.55;;;19.95;;
74941;SDS011;63506;49.346;8.798;2022-12-10T10:25:45;28.65;;;20.70;;
74941;SDS011;63506;49.346;8.798;2022-12-10T10:28:11;23.77;;;17.88;;
74941;SDS011;63506;49.346;8.798;2022-12-10T10:30:38;28.23;;;22.13;;
74941;SDS011;63506;49.346;8.798;2022-12-10T10:33:08;29.23;;;23.58;;
74941;SDS011;63506;49.346;8.798;2022-12-10T10:35:57;29.23;;;21.45;;
74941;SDS011;63506;49.346;8.798;2022-12-10T10:38:26;28.67;;;19.70;;
74941;SDS011;63506;49.346;8.798;2022-12-10T10:40:56;36.92;;;22.63;;
74941;SDS011;63506;49.346;8.798;2022-12-10T10:43:24;43.00;;;29.40;;
74941;SDS011;63506;49.346;8.798;2022-12-10T10:45:54;32.83;;;23.95;;
74941;SDS011;63506;49.346;8.798;2022-12-10T10:48:25;32.90;;;21.80;;
74941;SDS011;63506;49.346;8.798;2022-12-10T10:50:55;25.90;;;19.08;;
74941;SDS011;63506;49.346;8.798;2022-12-10T10:53:32;27.10;;;20.42;;
74941;SDS011;63506;49.346;8.798;2022-12-10T10:56:08;22.50;;;19.42;;
74941;SDS011;63506;49.346;8.798;2022-12-10T10:58:35;20.98;;;17.23;;
74941;SDS011;63506;49.346;8.798;2022-12-10T11:01:05;26.15;;;19.08;;
74941;SDS011;63506;49.346;8.798;2022-12-10T11:03:36;30.17;;;22.02;;
74941;SDS011;63506;49.346;8.798;2022-12-10T11:06:10;23.98;;;17.13;;
74941;SDS011;63506;49.346;8.798;2022-12-10T11:08:37;26.08;;;18.40;;
74941;SDS011;63506;49.346;8.798;2022-12-10T11:11:10;28.58;;;21.08;;
74941;SDS011;63506;49.346;8.798;2022-12-10T11:13:39;26.48;;;18.83;;
74941;SDS011;63506;49.346;8.798;2022-12-10T11:16:23;25.83;;;18.70;;
74941;SDS011;63506;49.346;8.798;2022-12-10T11:19:00;25.40;;;21.10;;
74941;SDS011;63506;49.346;8.798;2022-12-10T11:21:33;26.90;;;20.10;;
74941;SDS011;63506;49.346;8.798;2022-12-10T11:23:59;24.83;;;19.58;;
74941;SDS011;63506;49.346;8.798;2022-12-10T11:29:22;27.48;;;18.33;;
74941;SDS011;63506;49.346;8.798;2022-12-10T11:49:38;15.82;;;13.13;;
74941;SDS011;63506;49.346;8.798;2022-12-10T11:55:17;14.93;;;11.30;;
74941;SDS011;63506;49.346;8.798;2022-12-10T11:58:03;12.93;;;10.95;;
74941;SDS011;63506;49.346;8.798;2022-12-10T12:00:40;14.68;;;10.30;;
74941;SDS011;63506;49.346;8.798;2022-12-10T12:03:11;12.52;;;8.52;;
74941;SDS011;63506;49.346;8.798;2022-12-10T12:08:26;11.27;;;8.38;;
74941;SDS011;63506;49.346;8.798;2022-12-10T12:16:09;10.93;;;7.93;;
74941;SDS011;63506;49.346;8.798;2022-12-10T12:21:07;9.43;;;7.50;;
74941;SDS011;63506;49.346;8.798;2022-12-10T12:26:26;10.40;;;8.20;;
74941;SDS011;63506;49.346;8.798;2022-12-10T12:31:40;9.15;;;6.80;;
74941;SDS011;63506;49.346;8.798;2022-12-10T12:36:51;16.88;;;7.80;;
74941;SDS011;63506;49.346;8.798;2022-12-10T12:44:26;9.52;;;7.65;;
74941;SDS011;63506;49.346;8.798;2022-12-10T12:47:05;10.20;;;7.07;;
74941;SDS011;63506;49.346;8.798;2022-12-10T12:49:41;11.45;;;7.28;;
74941;SDS011;63506;49.346;8.798;2022-12-10T12:52:17;8.52;;;7.05;;
74941;SDS011;63506;49.346;8.798;2022-12-10T12:54:45;10.00;;;7.80;;
74941;SDS011;63506;49.346;8.798;2022-12-10T13:04:59;9.38;;;6.97;;
74941;SDS011;63506;49.346;8.798;2022-12-10T13:07:27;9.65;;;5.97;;
74941;SDS011;63506;49.346;8.798;2022-12-10T13:12:32;15.30;;;9.65;;
74941;SDS011;63506;49.346;8.798;2022-12-10T13:15:19;10.98;;;7.38;;
74941;SDS011;63506;49.346;8.798;2022-12-10T13:20:33;9.60;;;6.70;;
74941;SDS011;63506;49.346;8.798;2022-12-10T13:36:35;7.55;;;6.72;;
74941;SDS011;63506;49.346;8.798;2022-12-10T13:41:34;9.43;;;6.13;;
74941;SDS011;63506;49.346;8.798;2022-12-10T13:47:04;5.97;;;5.43;;
74941;SDS011;63506;49.346;8.798;2022-12-10T13:49:44;9.13;;;7.38;;
74941;SDS011;63506;49.346;8.798;2022-12-10T13:52:17;9.32;;;7.43;;
74941;SDS011;63506;49.346;8.798;2022-12-10T14:00:13;10.73;;;8.32;;
74941;SDS011;63506;49.346;8.798;2022-12-10T14:08:17;9.32;;;7.40;;
74941;SDS011;63506;49.346;8.798;2022-12-10T14:10:44;7.28;;;6.20;;
74941;SDS011;63506;49.346;8.798;2022-12-10T14:13:11;12.90;;;9.10;;
74941;SDS011;63506;49.346;8.798;2022-12-10T14:15:38;10.75;;;7.47;;
74941;SDS011;63506;49.346;8.798;2022-12-10T14:18:09;7.72;;;5.63;;
74941;SDS011;63506;49.346;8.798;2022-12-10T14:20:39;10.90;;;6.70;;
74941;SDS011;63506;49.346;8.798;2022-12-10T14:28:31;10.35;;;7.97;;
74941;SDS011;63506;49.346;8.798;2022-12-10T14:31:03;16.88;;;9.23;;
74941;SDS011;63506;49.346;8.798;2022-12-10T14:33:31;14.50;;;7.50;;
74941;SDS011;63506;49.346;8.798;2022-12-10T14:35:59;7.68;;;6.50;;
74941;SDS011;63506;49.346;8.798;2022-12-10T14:38:34;9.73;;;6.80;;
74941;SDS011;63506;49.346;8.798;2022-12-10T14:41:01;12.77;;;8.38;;
74941;SDS011;63506;49.346;8.798;2022-12-10T14:45:57;13.25;;;8.38;;
74941;SDS011;63506;49.346;8.798;2022-12-10T14:48:23;19.90;;;9.75;;
74941;SDS011;63506;49.346;8.798;2022-12-10T14:50:56;12.65;;;10.27;;
74941;SDS011;63506;49.346;8.798;2022-12-10T14:53:25;10.05;;;8.23;;
74941;SDS011;63506;49.346;8.798;2022-12-10T14:55:55;13.43;;;8.88;;
74941;SDS011;63506;49.346;8.798;2022-12-10T14:58:30;8.70;;;7.13;;
74941;SDS011;63506;49.346;8.798;2022-12-10T15:00:56;12.68;;;9.45;;
74941;SDS011;63506;49.346;8.798;2022-12-10T15:03:27;8.32;;;6.35;;
74941;SDS011;63506;49.346;8.798;2022-12-10T15:06:00;11.32;;;8.20;;
74941;SDS011;63506;49.346;8.798;2022-12-10T15:08:27;11.82;;;7.45;;
74941;SDS011;63506;49.346;8.798;2022-12-10T15:10:54;11.55;;;10.15;;
74941;SDS011;63506;49.346;8.798;2022-12-10T15:13:22;10.63;;;8.50;;
74941;SDS011;63506;49.346;8.798;2022-12-10T15:15:51;14.27;;;9.85;;
74941;SDS011;63506;49.346;8.798;2022-12-10T15:18:26;11.23;;;7.95;;
74941;SDS011;63506;49.346;8.798;2022-12-10T15:21:02;11.65;;;9.40;;
74941;SDS011;63506;49.346;8.798;2022-12-10T15:23:34;13.02;;;9.02;;
74941;SDS011;63506;49.346;8.798;2022-12-10T15:26:04;8.77;;;7.15;;
74941;SDS011;63506;49.346;8.798;2022-12-10T15:28:38;12.30;;;8.77;;
74941;SDS011;63506;49.346;8.798;2022-12-10T15:33:50;8.70;;;6.10;;
74941;SDS011;63506;49.346;8.798;2022-12-10T15:36:32;13.35;;;7.60;;
74941;SDS011;63506;49.346;8.798;2022-12-10T15:39:09;11.02;;;7.72;;
74941;SDS011;63506;49.346;8.798;2022-12-10T15:41:45;7.32;;;5.53;;
74941;SDS011;63506;49.346;8.798;2022-12-10T15:49:23;14.02;;;8.65;;
74941;SDS011;63506;49.346;8.798;2022-12-10T15:51:51;13.90;;;8.57;;
74941;SDS011;63506;49.346;8.798;2022-12-10T15:56:45;12.25;;;9.52;;
74941;SDS011;63506;49.346;8.798;2022-12-10T15:59:11;13.13;;;11.60;;
74941;SDS011;63506;49.346;8.798;2022-12-10T16:01:37;15.00;;;12.27;;
74941;SDS011;63506;49.346;8.798;2022-12-10T16:04:08;11.57;;;8.98;;
74941;SDS011;63506;49.346;8.798;2022-12-10T16:06:37;12.88;;;10.18;;
74941;SDS011;63506;49.346;8.798;2022-12-10T16:09:08;12.02;;;10.73;;
74941;SDS011;63506;49.346;8.798;2022-12-10T16:11:34;17.88;;;12.13;;
74941;SDS011;63506;49.346;8.798;2022-12-10T16:14:00;16.83;;;13.10;;
74941;SDS011;63506;49.346;8.798;2022-12-10T16:16:26;21.95;;;13.10;;
74941;SDS011;63506;49.346;8.798;2022-12-10T16:18:56;22.50;;;17.50;;
74941;SDS011;63506;49.346;8.798;2022-12-10T16:21:22;19.17;;;13.65;;
74941;SDS011;63506;49.346;8.798;2022-12-10T16:23:50;23.50;;;14.90;;
74941;SDS011;63506;49.346;8.798;2022-12-10T16:26:20;25.95;;;19.15;;
74941;SDS011;63506;49.346;8.798;2022-12-10T16:28:48;19.38;;;14.88;;
74941;SDS011;63506;49.346;8.798;2022-12-10T16:31:18;16.65;;;11.65;;
74941;SDS011;63506;49.346;8.798;2022-12-10T16:33:44;12.75;;;9.52;;
74941;SDS011;63506;49.346;8.798;2022-12-10T16:36:15;15.02;;;11.55;;
74941;SDS011;63506;49.346;8.798;2022-12-10T16:38:43;19.13;;;13.57;;
74941;SDS011;63506;49.346;8.798;2022-12-10T16:41:16;22.60;;;14.70;;
74941;SDS011;63506;49.346;8.798;2022-12-10T16:43:42;16.52;;;12.25;;
74941;SDS011;63506;49.346;8.798;2022-12-10T16:46:09;14.70;;;12.27;;
74941;SDS011;63506;49.346;8.798;2022-12-10T16:48:35;17.45;;;13.30;;
74941;SDS011;63506;49.346;8.798;2022-12-10T16:51:00;15.82;;;13.98;;
74941;SDS011;63506;49.346;8.798;2022-12-10T16:53:29;16.17;;;12.43;;
74941;SDS011;63506;49.346;8.798;2022-12-10T16:56:03;18.60;;;12.35;;